sensor_id;sensor_type;location;lat;lon;timestamp;P1;durP1;ratioP1;P2;durP2;ratioP2
21432;SDS011;18592;49.708;10.900;2023-05-07T00:01:33;2.53;;;2.10;;
21432;SDS011;18592;49.708;10.900;2023-05-07T00:03:35;2.75;;;2.28;;
21432;SDS011;18592;49.708;10.900;2023-05-07T00:05:37;2.90;;;2.35;;
21432;SDS011;18592;49.708;10.900;2023-05-07T00:07:40;2.50;;;2.30;;
21432;SDS011;18592;49.708;10.900;2023-05-07T00:09:42;3.08;;;1.90;;
21432;SDS011;18592;49.708;10.900;2023-05-07T00:11:43;4.05;;;2.22;;
21432;SDS011;18592;49.708;10.900;2023-05-07T00:13:45;4.47;;;2.70;;
21432;SDS011;18592;49.708;10.900;2023-05-07T00:15:47;3.85;;;2.60;;
21432;SDS011;18592;49.708;10.900;2023-05-07T00:17:48;3.13;;;2.70;;
21432;SDS011;18592;49.708;10.900;2023-05-07T00:19:50;4.40;;;2.53;;
21432;SDS011;18592;49.708;10.900;2023-05-07T00:21:51;3.58;;;2.83;;
21432;SDS011;18592;49.708;10.900;2023-05-07T00:23:55;3.22;;;2.55;;
21432;SDS011;18592;49.708;10.900;2023-05-07T00:25:56;3.97;;;2.40;;
21432;SDS011;18592;49.708;10.900;2023-05-07T00:27:58;2.78;;;2.40;;
21432;SDS011;18592;49.708;10.900;2023-05-07T00:30:04;2.60;;;2.40;;
21432;SDS011;18592;49.708;10.900;2023-05-07T00:32:07;3.55;;;2.80;;
21432;SDS011;18592;49.708;10.900;2023-05-07T00:34:10;2.60;;;2.13;;
21432;SDS011;18592;49.708;10.900;2023-05-07T00:36:11;3.60;;;2.22;;
21432;SDS011;18592;49.708;10.900;2023-05-07T00:38:13;2.55;;;2.20;;
21432;SDS011;18592;49.708;10.900;2023-05-07T00:40:15;2.95;;;2.40;;
21432;SDS011;18592;49.708;10.900;2023-05-07T00:42:16;2.95;;;2.42;;
21432;SDS011;18592;49.708;10.900;2023-05-07T00:44:18;4.30;;;2.40;;
21432;SDS011;18592;49.708;10.900;2023-05-07T00:46:20;2.92;;;2.42;;
21432;SDS011;18592;49.708;10.900;2023-05-07T00:48:22;2.85;;;2.55;;
21432;SDS011;18592;49.708;10.900;2023-05-07T00:50:26;3.10;;;2.58;;
21432;SDS011;18592;49.708;10.900;2023-05-07T00:52:31;2.63;;;2.40;;
21432;SDS011;18592;49.708;10.900;2023-05-07T00:54:32;2.97;;;2.40;;
21432;SDS011;18592;49.708;10.900;2023-05-07T00:56:35;3.35;;;2.40;;
21432;SDS011;18592;49.708;10.900;2023-05-07T00:58:37;3.20;;;2.33;;
21432;SDS011;18592;49.708;10.900;2023-05-07T01:00:39;2.72;;;2.38;;
21432;SDS011;18592;49.708;10.900;2023-05-07T01:02:41;3.17;;;2.50;;
21432;SDS011;18592;49.708;10.900;2023-05-07T01:04:44;3.60;;;2.47;;
21432;SDS011;18592;49.708;10.900;2023-05-07T01:06:45;3.30;;;2.53;;
21432;SDS011;18592;49.708;10.900;2023-05-07T01:08:48;4.65;;;2.70;;
21432;SDS011;18592;49.708;10.900;2023-05-07T01:10:52;3.45;;;2.60;;
21432;SDS011;18592;49.708;10.900;2023-05-07T01:12:54;3.65;;;2.60;;
21432;SDS011;18592;49.708;10.900;2023-05-07T01:14:58;3.38;;;2.45;;
21432;SDS011;18592;49.708;10.900;2023-05-07T01:17:00;2.60;;;2.30;;
21432;SDS011;18592;49.708;10.900;2023-05-07T01:19:02;4.05;;;2.25;;
21432;SDS011;18592;49.708;10.900;2023-05-07T01:21:04;2.90;;;1.90;;
21432;SDS011;18592;49.708;10.900;2023-05-07T01:23:09;3.55;;;2.50;;
21432;SDS011;18592;49.708;10.900;2023-05-07T01:25:12;2.90;;;2.33;;
21432;SDS011;18592;49.708;10.900;2023-05-07T01:27:19;3.22;;;2.33;;
21432;SDS011;18592;49.708;10.900;2023-05-07T01:29:23;2.28;;;2.00;;
21432;SDS011;18592;49.708;10.900;2023-05-07T01:31:25;2.50;;;2.30;;
21432;SDS011;18592;49.708;10.900;2023-05-07T01:33:27;2.45;;;2.20;;
21432;SDS011;18592;49.708;10.900;2023-05-07T01:35:37;2.55;;;2.05;;
21432;SDS011;18592;49.708;10.900;2023-05-07T01:37:41;2.72;;;2.45;;
21432;SDS011;18592;49.708;10.900;2023-05-07T01:39:43;5.65;;;2.20;;
21432;SDS011;18592;49.708;10.900;2023-05-07T01:41:48;3.38;;;2.10;;
21432;SDS011;18592;49.708;10.900;2023-05-07T01:43:50;3.15;;;2.10;;
21432;SDS011;18592;49.708;10.900;2023-05-07T01:45:53;3.25;;;2.60;;
21432;SDS011;18592;49.708;10.900;2023-05-07T01:47:55;2.70;;;2.42;;
21432;SDS011;18592;49.708;10.900;2023-05-07T01:49:58;3.63;;;2.47;;
21432;SDS011;18592;49.708;10.900;2023-05-07T01:52:01;3.17;;;2.08;;
21432;SDS011;18592;49.708;10.900;2023-05-07T01:54:03;2.38;;;2.10;;
21432;SDS011;18592;49.708;10.900;2023-05-07T01:56:05;3.45;;;2.53;;
21432;SDS011;18592;49.708;10.900;2023-05-07T01:58:12;3.67;;;2.38;;
21432;SDS011;18592;49.708;10.900;2023-05-07T02:00:16;2.70;;;2.13;;
21432;SDS011;18592;49.708;10.900;2023-05-07T02:02:18;2.38;;;2.17;;
21432;SDS011;18592;49.708;10.900;2023-05-07T02:04:21;2.85;;;2.00;;
21432;SDS011;18592;49.708;10.900;2023-05-07T02:06:24;3.53;;;2.25;;
21432;SDS011;18592;49.708;10.900;2023-05-07T02:08:30;3.15;;;2.50;;
21432;SDS011;18592;49.708;10.900;2023-05-07T02:10:32;2.90;;;2.00;;
21432;SDS011;18592;49.708;10.900;2023-05-07T02:12:34;2.70;;;2.30;;
21432;SDS011;18592;49.708;10.900;2023-05-07T02:14:36;2.58;;;2.33;;
21432;SDS011;18592;49.708;10.900;2023-05-07T02:16:37;3.08;;;2.70;;
21432;SDS011;18592;49.708;10.900;2023-05-07T02:18:39;3.20;;;2.42;;
21432;SDS011;18592;49.708;10.900;2023-05-07T02:20:41;2.53;;;2.30;;
21432;SDS011;18592;49.708;10.900;2023-05-07T02:22:42;3.38;;;2.60;;
21432;SDS011;18592;49.708;10.900;2023-05-07T02:24:44;3.30;;;2.75;;
21432;SDS011;18592;49.708;10.900;2023-05-07T02:26:46;2.50;;;2.30;;
21432;SDS011;18592;49.708;10.900;2023-05-07T02:28:47;2.15;;;1.90;;
21432;SDS011;18592;49.708;10.900;2023-05-07T02:30:49;2.88;;;2.17;;
21432;SDS011;18592;49.708;10.900;2023-05-07T02:32:51;2.28;;;2.05;;
21432;SDS011;18592;49.708;10.900;2023-05-07T02:34:53;2.15;;;1.95;;
21432;SDS011;18592;49.708;10.900;2023-05-07T02:36:55;2.30;;;2.10;;
21432;SDS011;18592;49.708;10.900;2023-05-07T02:38:59;3.80;;;2.28;;
21432;SDS011;18592;49.708;10.900;2023-05-07T02:41:02;2.85;;;2.10;;
21432;SDS011;18592;49.708;10.900;2023-05-07T02:43:03;3.63;;;2.10;;
21432;SDS011;18592;49.708;10.900;2023-05-07T02:45:05;3.45;;;2.47;;
21432;SDS011;18592;49.708;10.900;2023-05-07T02:47:09;4.15;;;2.47;;
21432;SDS011;18592;49.708;10.900;2023-05-07T02:49:12;2.92;;;2.47;;
21432;SDS011;18592;49.708;10.900;2023-05-07T02:51:13;3.50;;;2.15;;
21432;SDS011;18592;49.708;10.900;2023-05-07T02:53:16;2.42;;;2.20;;
21432;SDS011;18592;49.708;10.900;2023-05-07T02:55:18;2.28;;;1.90;;
21432;SDS011;18592;49.708;10.900;2023-05-07T02:57:19;2.20;;;2.00;;
21432;SDS011;18592;49.708;10.900;2023-05-07T02:59:24;2.15;;;1.88;;
21432;SDS011;18592;49.708;10.900;2023-05-07T03:01:27;2.75;;;2.13;;
21432;SDS011;18592;49.708;10.900;2023-05-07T03:03:35;2.58;;;2.10;;
21432;SDS011;18592;49.708;10.900;2023-05-07T03:08:05;2.42;;;2.20;;
21432;SDS011;18592;49.708;10.900;2023-05-07T03:10:08;2.63;;;2.13;;
21432;SDS011;18592;49.708;10.900;2023-05-07T03:12:10;2.92;;;2.15;;
21432;SDS011;18592;49.708;10.900;2023-05-07T03:14:11;2.95;;;2.50;;
21432;SDS011;18592;49.708;10.900;2023-05-07T03:16:13;2.80;;;2.00;;
21432;SDS011;18592;49.708;10.900;2023-05-07T03:18:14;3.90;;;2.65;;
21432;SDS011;18592;49.708;10.900;2023-05-07T03:20:16;2.92;;;2.55;;
21432;SDS011;18592;49.708;10.900;2023-05-07T03:22:18;2.47;;;2.10;;
21432;SDS011;18592;49.708;10.900;2023-05-07T03:24:20;2.75;;;2.22;;
21432;SDS011;18592;49.708;10.900;2023-05-07T03:26:22;3.35;;;2.50;;
21432;SDS011;18592;49.708;10.900;2023-05-07T03:28:26;3.42;;;2.28;;
21432;SDS011;18592;49.708;10.900;2023-05-07T03:30:32;2.95;;;2.65;;
21432;SDS011;18592;49.708;10.900;2023-05-07T03:32:34;2.35;;;2.15;;
21432;SDS011;18592;49.708;10.900;2023-05-07T03:34:40;2.85;;;2.38;;
21432;SDS011;18592;49.708;10.900;2023-05-07T03:36:48;2.55;;;2.10;;
21432;SDS011;18592;49.708;10.900;2023-05-07T03:38:51;2.75;;;2.03;;
21432;SDS011;18592;49.708;10.900;2023-05-07T03:40:58;2.38;;;2.17;;
21432;SDS011;18592;49.708;10.900;2023-05-07T03:43:02;3.63;;;2.60;;
21432;SDS011;18592;49.708;10.900;2023-05-07T03:45:06;2.47;;;2.28;;
21432;SDS011;18592;49.708;10.900;2023-05-07T03:47:10;3.70;;;2.83;;
21432;SDS011;18592;49.708;10.900;2023-05-07T03:49:13;3.25;;;2.78;;
21432;SDS011;18592;49.708;10.900;2023-05-07T03:51:15;3.28;;;2.55;;
21432;SDS011;18592;49.708;10.900;2023-05-07T03:53:16;5.13;;;2.85;;
21432;SDS011;18592;49.708;10.900;2023-05-07T03:55:18;3.20;;;2.60;;
21432;SDS011;18592;49.708;10.900;2023-05-07T03:57:25;2.47;;;2.28;;
21432;SDS011;18592;49.708;10.900;2023-05-07T03:59:26;3.20;;;1.90;;
21432;SDS011;18592;49.708;10.900;2023-05-07T04:01:29;2.53;;;2.20;;
21432;SDS011;18592;49.708;10.900;2023-05-07T04:03:36;2.33;;;2.05;;
21432;SDS011;18592;49.708;10.900;2023-05-07T04:05:38;2.30;;;2.10;;
21432;SDS011;18592;49.708;10.900;2023-05-07T04:07:40;2.78;;;2.38;;
21432;SDS011;18592;49.708;10.900;2023-05-07T04:09:42;2.58;;;2.13;;
21432;SDS011;18592;49.708;10.900;2023-05-07T04:11:44;3.13;;;2.15;;
21432;SDS011;18592;49.708;10.900;2023-05-07T04:13:46;2.40;;;2.20;;
21432;SDS011;18592;49.708;10.900;2023-05-07T04:15:51;2.45;;;2.25;;
21432;SDS011;18592;49.708;10.900;2023-05-07T04:17:54;3.10;;;2.50;;
21432;SDS011;18592;49.708;10.900;2023-05-07T04:19:57;3.30;;;2.20;;
21432;SDS011;18592;49.708;10.900;2023-05-07T04:22:00;2.72;;;2.22;;
21432;SDS011;18592;49.708;10.900;2023-05-07T04:24:08;3.45;;;2.40;;
21432;SDS011;18592;49.708;10.900;2023-05-07T04:26:10;4.90;;;2.67;;
21432;SDS011;18592;49.708;10.900;2023-05-07T04:28:15;2.60;;;2.40;;
21432;SDS011;18592;49.708;10.900;2023-05-07T04:30:19;3.55;;;2.63;;
21432;SDS011;18592;49.708;10.900;2023-05-07T04:32:24;3.13;;;2.40;;
21432;SDS011;18592;49.708;10.900;2023-05-07T04:34:27;2.55;;;2.33;;
21432;SDS011;18592;49.708;10.900;2023-05-07T04:36:35;2.45;;;2.13;;
21432;SDS011;18592;49.708;10.900;2023-05-07T04:38:41;2.58;;;2.30;;
21432;SDS011;18592;49.708;10.900;2023-05-07T04:40:44;5.35;;;2.58;;
21432;SDS011;18592;49.708;10.900;2023-05-07T04:42:49;3.10;;;2.50;;
21432;SDS011;18592;49.708;10.900;2023-05-07T04:44:52;3.35;;;1.95;;
21432;SDS011;18592;49.708;10.900;2023-05-07T04:46:55;2.17;;;2.05;;
21432;SDS011;18592;49.708;10.900;2023-05-07T04:48:57;3.03;;;2.25;;
21432;SDS011;18592;49.708;10.900;2023-05-07T04:50:58;2.97;;;2.40;;
21432;SDS011;18592;49.708;10.900;2023-05-07T04:53:01;2.53;;;2.30;;
21432;SDS011;18592;49.708;10.900;2023-05-07T04:55:02;2.40;;;2.20;;
21432;SDS011;18592;49.708;10.900;2023-05-07T04:57:09;3.85;;;2.40;;
21432;SDS011;18592;49.708;10.900;2023-05-07T04:59:10;3.17;;;2.33;;
21432;SDS011;18592;49.708;10.900;2023-05-07T05:01:12;4.03;;;2.40;;
21432;SDS011;18592;49.708;10.900;2023-05-07T05:03:15;2.63;;;2.42;;
21432;SDS011;18592;49.708;10.900;2023-05-07T05:05:17;2.40;;;2.20;;
21432;SDS011;18592;49.708;10.900;2023-05-07T05:07:21;2.67;;;2.47;;
21432;SDS011;18592;49.708;10.900;2023-05-07T05:09:23;3.90;;;2.60;;
21432;SDS011;18592;49.708;10.900;2023-05-07T05:11:24;2.83;;;2.63;;
21432;SDS011;18592;49.708;10.900;2023-05-07T05:13:28;3.20;;;2.40;;
21432;SDS011;18592;49.708;10.900;2023-05-07T05:15:32;2.83;;;2.50;;
21432;SDS011;18592;49.708;10.900;2023-05-07T05:17:35;3.35;;;2.70;;
21432;SDS011;18592;49.708;10.900;2023-05-07T05:19:40;3.05;;;2.75;;
21432;SDS011;18592;49.708;10.900;2023-05-07T05:21:42;3.08;;;2.65;;
21432;SDS011;18592;49.708;10.900;2023-05-07T05:23:44;3.20;;;2.45;;
21432;SDS011;18592;49.708;10.900;2023-05-07T05:25:54;3.15;;;2.85;;
21432;SDS011;18592;49.708;10.900;2023-05-07T05:27:59;3.10;;;2.80;;
21432;SDS011;18592;49.708;10.900;2023-05-07T05:30:02;2.83;;;2.63;;
21432;SDS011;18592;49.708;10.900;2023-05-07T05:32:05;3.80;;;3.08;;
21432;SDS011;18592;49.708;10.900;2023-05-07T05:34:07;3.97;;;2.70;;
21432;SDS011;18592;49.708;10.900;2023-05-07T05:36:10;2.78;;;2.58;;
21432;SDS011;18592;49.708;10.900;2023-05-07T05:38:13;3.45;;;3.15;;
21432;SDS011;18592;49.708;10.900;2023-05-07T05:40:15;3.22;;;2.80;;
21432;SDS011;18592;49.708;10.900;2023-05-07T05:42:17;4.53;;;3.13;;
21432;SDS011;18592;49.708;10.900;2023-05-07T05:44:19;5.88;;;2.70;;
21432;SDS011;18592;49.708;10.900;2023-05-07T05:46:21;3.33;;;3.03;;
21432;SDS011;18592;49.708;10.900;2023-05-07T05:48:25;4.18;;;3.33;;
21432;SDS011;18592;49.708;10.900;2023-05-07T05:50:27;3.67;;;3.38;;
21432;SDS011;18592;49.708;10.900;2023-05-07T05:52:28;3.20;;;2.90;;
21432;SDS011;18592;49.708;10.900;2023-05-07T05:54:31;3.40;;;3.10;;
21432;SDS011;18592;49.708;10.900;2023-05-07T05:56:32;3.95;;;3.38;;
21432;SDS011;18592;49.708;10.900;2023-05-07T05:58:34;3.42;;;3.13;;
21432;SDS011;18592;49.708;10.900;2023-05-07T06:00:39;4.10;;;3.58;;
21432;SDS011;18592;49.708;10.900;2023-05-07T06:02:41;6.18;;;3.95;;
21432;SDS011;18592;49.708;10.900;2023-05-07T06:04:44;4.85;;;4.20;;
21432;SDS011;18592;49.708;10.900;2023-05-07T06:06:50;4.68;;;4.18;;
21432;SDS011;18592;49.708;10.900;2023-05-07T06:08:52;4.70;;;4.18;;
21432;SDS011;18592;49.708;10.900;2023-05-07T06:10:59;4.70;;;4.30;;
21432;SDS011;18592;49.708;10.900;2023-05-07T06:13:04;5.03;;;4.50;;
21432;SDS011;18592;49.708;10.900;2023-05-07T06:15:07;6.03;;;4.93;;
21432;SDS011;18592;49.708;10.900;2023-05-07T06:17:09;5.25;;;4.80;;
21432;SDS011;18592;49.708;10.900;2023-05-07T06:19:11;6.00;;;5.35;;
21432;SDS011;18592;49.708;10.900;2023-05-07T06:21:13;5.95;;;5.28;;
21432;SDS011;18592;49.708;10.900;2023-05-07T06:23:16;6.25;;;4.88;;
21432;SDS011;18592;49.708;10.900;2023-05-07T06:25:18;5.80;;;5.20;;
21432;SDS011;18592;49.708;10.900;2023-05-07T06:27:20;6.78;;;5.47;;
21432;SDS011;18592;49.708;10.900;2023-05-07T06:29:22;6.57;;;5.40;;
21432;SDS011;18592;49.708;10.900;2023-05-07T06:31:28;6.25;;;5.20;;
21432;SDS011;18592;49.708;10.900;2023-05-07T06:33:36;6.00;;;4.95;;
21432;SDS011;18592;49.708;10.900;2023-05-07T06:35:38;5.80;;;5.20;;
21432;SDS011;18592;49.708;10.900;2023-05-07T06:37:40;6.85;;;5.20;;
21432;SDS011;18592;49.708;10.900;2023-05-07T06:39:52;6.07;;;5.05;;
21432;SDS011;18592;49.708;10.900;2023-05-07T06:41:54;5.95;;;5.35;;
21432;SDS011;18592;49.708;10.900;2023-05-07T06:44:00;5.28;;;4.78;;
21432;SDS011;18592;49.708;10.900;2023-05-07T06:46:11;4.88;;;4.47;;
21432;SDS011;18592;49.708;10.900;2023-05-07T06:48:16;4.60;;;4.18;;
21432;SDS011;18592;49.708;10.900;2023-05-07T06:50:33;5.10;;;4.50;;
21432;SDS011;18592;49.708;10.900;2023-05-07T06:52:35;5.22;;;4.60;;
21432;SDS011;18592;49.708;10.900;2023-05-07T06:54:39;4.65;;;4.25;;
21432;SDS011;18592;49.708;10.900;2023-05-07T06:56:41;5.28;;;4.15;;
21432;SDS011;18592;49.708;10.900;2023-05-07T06:58:43;4.75;;;4.25;;
21432;SDS011;18592;49.708;10.900;2023-05-07T07:00:48;4.88;;;4.30;;
21432;SDS011;18592;49.708;10.900;2023-05-07T07:02:50;4.65;;;4.25;;
21432;SDS011;18592;49.708;10.900;2023-05-07T07:04:55;4.90;;;4.13;;
21432;SDS011;18592;49.708;10.900;2023-05-07T07:06:56;5.50;;;4.28;;
21432;SDS011;18592;49.708;10.900;2023-05-07T07:08:58;4.93;;;4.50;;
21432;SDS011;18592;49.708;10.900;2023-05-07T07:11:01;5.13;;;4.10;;
21432;SDS011;18592;49.708;10.900;2023-05-07T07:13:03;5.93;;;4.80;;
21432;SDS011;18592;49.708;10.900;2023-05-07T07:15:06;4.70;;;4.30;;
21432;SDS011;18592;49.708;10.900;2023-05-07T07:17:08;4.30;;;3.90;;
21432;SDS011;18592;49.708;10.900;2023-05-07T07:19:09;4.70;;;4.20;;
21432;SDS011;18592;49.708;10.900;2023-05-07T07:21:11;4.45;;;4.05;;
21432;SDS011;18592;49.708;10.900;2023-05-07T07:23:13;4.28;;;3.90;;
21432;SDS011;18592;49.708;10.900;2023-05-07T07:25:15;4.72;;;4.10;;
21432;SDS011;18592;49.708;10.900;2023-05-07T07:27:17;4.70;;;4.00;;
21432;SDS011;18592;49.708;10.900;2023-05-07T07:29:19;4.40;;;4.00;;
21432;SDS011;18592;49.708;10.900;2023-05-07T07:31:21;4.53;;;4.07;;
21432;SDS011;18592;49.708;10.900;2023-05-07T07:33:24;4.70;;;4.00;;
21432;SDS011;18592;49.708;10.900;2023-05-07T07:35:29;5.18;;;3.95;;
21432;SDS011;18592;49.708;10.900;2023-05-07T07:37:31;4.22;;;3.63;;
21432;SDS011;18592;49.708;10.900;2023-05-07T07:39:35;4.93;;;4.43;;
21432;SDS011;18592;49.708;10.900;2023-05-07T07:41:40;5.15;;;3.85;;
21432;SDS011;18592;49.708;10.900;2023-05-07T07:43:42;4.25;;;3.85;;
21432;SDS011;18592;49.708;10.900;2023-05-07T07:45:44;4.47;;;3.85;;
21432;SDS011;18592;49.708;10.900;2023-05-07T07:47:47;4.05;;;3.65;;
21432;SDS011;18592;49.708;10.900;2023-05-07T07:49:48;4.03;;;3.70;;
21432;SDS011;18592;49.708;10.900;2023-05-07T07:51:50;4.07;;;3.67;;
21432;SDS011;18592;49.708;10.900;2023-05-07T07:53:52;3.67;;;3.38;;
21432;SDS011;18592;49.708;10.900;2023-05-07T07:55:54;4.00;;;3.60;;
21432;SDS011;18592;49.708;10.900;2023-05-07T07:58:03;4.25;;;3.30;;
21432;SDS011;18592;49.708;10.900;2023-05-07T08:00:05;4.25;;;3.75;;
21432;SDS011;18592;49.708;10.900;2023-05-07T08:02:17;4.22;;;3.83;;
21432;SDS011;18592;49.708;10.900;2023-05-07T08:04:20;4.10;;;3.78;;
21432;SDS011;18592;49.708;10.900;2023-05-07T08:06:22;3.90;;;3.58;;
21432;SDS011;18592;49.708;10.900;2023-05-07T08:08:27;4.72;;;4.32;;
21432;SDS011;18592;49.708;10.900;2023-05-07T08:10:30;4.50;;;4.10;;
21432;SDS011;18592;49.708;10.900;2023-05-07T08:12:40;4.28;;;3.88;;
21432;SDS011;18592;49.708;10.900;2023-05-07T08:14:53;4.30;;;3.90;;
21432;SDS011;18592;49.708;10.900;2023-05-07T08:16:55;4.57;;;4.18;;
21432;SDS011;18592;49.708;10.900;2023-05-07T08:18:57;4.45;;;4.05;;
21432;SDS011;18592;49.708;10.900;2023-05-07T08:21:00;4.30;;;3.90;;
21432;SDS011;18592;49.708;10.900;2023-05-07T08:23:02;5.05;;;4.15;;
21432;SDS011;18592;49.708;10.900;2023-05-07T08:25:04;4.20;;;3.80;;
21432;SDS011;18592;49.708;10.900;2023-05-07T08:27:07;5.03;;;4.10;;
21432;SDS011;18592;49.708;10.900;2023-05-07T08:29:08;4.70;;;4.30;;
21432;SDS011;18592;49.708;10.900;2023-05-07T08:31:10;6.22;;;4.05;;
21432;SDS011;18592;49.708;10.900;2023-05-07T08:33:14;4.53;;;3.70;;
21432;SDS011;18592;49.708;10.900;2023-05-07T08:35:17;4.32;;;3.92;;
21432;SDS011;18592;49.708;10.900;2023-05-07T08:37:19;4.20;;;3.90;;
21432;SDS011;18592;49.708;10.900;2023-05-07T08:39:21;4.03;;;3.58;;
21432;SDS011;18592;49.708;10.900;2023-05-07T08:41:25;3.80;;;3.50;;
21432;SDS011;18592;49.708;10.900;2023-05-07T08:43:27;3.90;;;3.60;;
21432;SDS011;18592;49.708;10.900;2023-05-07T08:45:30;4.15;;;3.75;;
21432;SDS011;18592;49.708;10.900;2023-05-07T08:47:39;3.67;;;3.38;;
21432;SDS011;18592;49.708;10.900;2023-05-07T08:49:46;4.20;;;3.80;;
21432;SDS011;18592;49.708;10.900;2023-05-07T08:51:50;4.50;;;4.10;;
21432;SDS011;18592;49.708;10.900;2023-05-07T08:53:53;5.90;;;5.30;;
21432;SDS011;18592;49.708;10.900;2023-05-07T08:56:00;6.70;;;6.10;;
21432;SDS011;18592;49.708;10.900;2023-05-07T08:58:04;6.90;;;5.95;;
21432;SDS011;18592;49.708;10.900;2023-05-07T09:00:11;5.95;;;5.40;;
21432;SDS011;18592;49.708;10.900;2023-05-07T09:02:15;6.03;;;5.43;;
21432;SDS011;18592;49.708;10.900;2023-05-07T09:04:20;5.30;;;4.80;;
21432;SDS011;18592;49.708;10.900;2023-05-07T09:06:24;5.43;;;4.93;;
21432;SDS011;18592;49.708;10.900;2023-05-07T09:08:26;5.45;;;4.97;;
21432;SDS011;18592;49.708;10.900;2023-05-07T09:10:34;4.80;;;4.38;;
21432;SDS011;18592;49.708;10.900;2023-05-07T09:12:39;4.15;;;3.75;;
21432;SDS011;18592;49.708;10.900;2023-05-07T09:14:44;5.28;;;3.90;;
21432;SDS011;18592;49.708;10.900;2023-05-07T09:16:47;3.80;;;3.50;;
21432;SDS011;18592;49.708;10.900;2023-05-07T09:18:50;4.45;;;4.05;;
21432;SDS011;18592;49.708;10.900;2023-05-07T09:20:54;3.97;;;3.65;;
21432;SDS011;18592;49.708;10.900;2023-05-07T09:22:56;3.50;;;3.20;;
21432;SDS011;18592;49.708;10.900;2023-05-07T09:24:59;4.82;;;3.35;;
21432;SDS011;18592;49.708;10.900;2023-05-07T09:27:02;3.63;;;3.33;;
21432;SDS011;18592;49.708;10.900;2023-05-07T09:29:06;3.33;;;3.00;;
21432;SDS011;18592;49.708;10.900;2023-05-07T09:31:09;3.20;;;3.00;;
21432;SDS011;18592;49.708;10.900;2023-05-07T09:33:35;3.53;;;3.30;;
21432;SDS011;18592;49.708;10.900;2023-05-07T09:35:38;3.53;;;3.22;;
21432;SDS011;18592;49.708;10.900;2023-05-07T09:37:45;3.40;;;3.13;;
21432;SDS011;18592;49.708;10.900;2023-05-07T09:39:48;3.72;;;3.42;;
21432;SDS011;18592;49.708;10.900;2023-05-07T09:41:54;3.03;;;2.83;;
21432;SDS011;18592;49.708;10.900;2023-05-07T09:44:04;3.80;;;3.35;;
21432;SDS011;18592;49.708;10.900;2023-05-07T09:46:16;3.50;;;3.20;;
21432;SDS011;18592;49.708;10.900;2023-05-07T09:48:31;3.28;;;2.78;;
21432;SDS011;18592;49.708;10.900;2023-05-07T09:50:40;3.25;;;2.95;;
21432;SDS011;18592;49.708;10.900;2023-05-07T09:52:52;4.15;;;3.17;;
21432;SDS011;18592;49.708;10.900;2023-05-07T09:54:55;3.42;;;3.05;;
21432;SDS011;18592;49.708;10.900;2023-05-07T09:57:02;3.30;;;2.78;;
21432;SDS011;18592;49.708;10.900;2023-05-07T09:59:04;3.60;;;3.25;;
21432;SDS011;18592;49.708;10.900;2023-05-07T10:01:08;3.30;;;3.00;;
21432;SDS011;18592;49.708;10.900;2023-05-07T10:03:15;3.28;;;2.97;;
21432;SDS011;18592;49.708;10.900;2023-05-07T10:05:27;3.60;;;3.30;;
21432;SDS011;18592;49.708;10.900;2023-05-07T10:07:32;2.88;;;2.67;;
21432;SDS011;18592;49.708;10.900;2023-05-07T10:09:39;4.35;;;3.10;;
21432;SDS011;18592;49.708;10.900;2023-05-07T10:11:49;3.15;;;2.95;;
21432;SDS011;18592;49.708;10.900;2023-05-07T10:13:52;3.53;;;3.15;;
21432;SDS011;18592;49.708;10.900;2023-05-07T10:15:54;3.83;;;3.20;;
21432;SDS011;18592;49.708;10.900;2023-05-07T10:17:58;3.28;;;2.97;;
21432;SDS011;18592;49.708;10.900;2023-05-07T10:20:02;3.17;;;2.90;;
21432;SDS011;18592;49.708;10.900;2023-05-07T10:22:06;3.55;;;3.25;;
21432;SDS011;18592;49.708;10.900;2023-05-07T10:24:27;3.38;;;3.08;;
21432;SDS011;18592;49.708;10.900;2023-05-07T10:26:44;3.47;;;3.17;;
21432;SDS011;18592;49.708;10.900;2023-05-07T10:28:56;3.58;;;3.28;;
21432;SDS011;18592;49.708;10.900;2023-05-07T10:31:42;3.20;;;2.90;;
21432;SDS011;18592;49.708;10.900;2023-05-07T10:33:49;2.88;;;2.65;;
21432;SDS011;18592;49.708;10.900;2023-05-07T10:35:58;2.90;;;2.70;;
21432;SDS011;18592;49.708;10.900;2023-05-07T10:38:04;2.90;;;2.70;;
21432;SDS011;18592;49.708;10.900;2023-05-07T10:40:09;3.22;;;2.92;;
21432;SDS011;18592;49.708;10.900;2023-05-07T10:42:12;3.17;;;2.97;;
21432;SDS011;18592;49.708;10.900;2023-05-07T10:44:27;2.97;;;2.75;;
21432;SDS011;18592;49.708;10.900;2023-05-07T10:46:33;2.70;;;2.50;;
21432;SDS011;18592;49.708;10.900;2023-05-07T10:51:30;2.70;;;2.50;;
21432;SDS011;18592;49.708;10.900;2023-05-07T10:53:47;2.97;;;2.40;;
21432;SDS011;18592;49.708;10.900;2023-05-07T10:58:28;2.90;;;2.70;;
21432;SDS011;18592;49.708;10.900;2023-05-07T11:00:47;2.47;;;2.28;;
21432;SDS011;18592;49.708;10.900;2023-05-07T11:05:20;2.78;;;2.58;;
21432;SDS011;18592;49.708;10.900;2023-05-07T11:07:29;3.22;;;2.25;;
21432;SDS011;18592;49.708;10.900;2023-05-07T11:12:08;2.67;;;2.45;;
21432;SDS011;18592;49.708;10.900;2023-05-07T11:17:03;2.53;;;2.33;;
21432;SDS011;18592;49.708;10.900;2023-05-07T11:19:06;2.33;;;2.13;;
21432;SDS011;18592;49.708;10.900;2023-05-07T11:21:31;2.65;;;2.45;;
21432;SDS011;18592;49.708;10.900;2023-05-07T11:23:57;2.67;;;2.47;;
21432;SDS011;18592;49.708;10.900;2023-05-07T11:26:17;2.90;;;2.60;;
21432;SDS011;18592;49.708;10.900;2023-05-07T11:28:19;2.95;;;2.35;;
21432;SDS011;18592;49.708;10.900;2023-05-07T11:30:30;4.95;;;2.53;;
21432;SDS011;18592;49.708;10.900;2023-05-07T11:32:33;3.10;;;2.78;;
21432;SDS011;18592;49.708;10.900;2023-05-07T11:34:35;2.55;;;2.35;;
21432;SDS011;18592;49.708;10.900;2023-05-07T11:36:41;2.90;;;2.60;;
21432;SDS011;18592;49.708;10.900;2023-05-07T11:38:47;2.78;;;2.58;;
21432;SDS011;18592;49.708;10.900;2023-05-07T11:40:49;2.70;;;2.50;;
21432;SDS011;18592;49.708;10.900;2023-05-07T11:42:52;3.20;;;2.90;;
21432;SDS011;18592;49.708;10.900;2023-05-07T11:44:53;2.50;;;2.30;;
21432;SDS011;18592;49.708;10.900;2023-05-07T11:46:55;3.67;;;2.60;;
21432;SDS011;18592;49.708;10.900;2023-05-07T11:49:00;2.72;;;2.50;;
21432;SDS011;18592;49.708;10.900;2023-05-07T11:51:02;2.30;;;2.10;;
21432;SDS011;18592;49.708;10.900;2023-05-07T11:53:09;3.90;;;2.60;;
21432;SDS011;18592;49.708;10.900;2023-05-07T11:55:14;2.83;;;2.60;;
21432;SDS011;18592;49.708;10.900;2023-05-07T11:57:20;2.30;;;2.08;;
21432;SDS011;18592;49.708;10.900;2023-05-07T11:59:22;3.03;;;2.33;;
21432;SDS011;18592;49.708;10.900;2023-05-07T12:01:23;2.00;;;1.90;;
21432;SDS011;18592;49.708;10.900;2023-05-07T12:03:25;2.85;;;2.50;;
21432;SDS011;18592;49.708;10.900;2023-05-07T12:05:35;2.00;;;1.90;;
21432;SDS011;18592;49.708;10.900;2023-05-07T12:07:38;2.20;;;2.00;;
21432;SDS011;18592;49.708;10.900;2023-05-07T12:09:40;2.22;;;2.00;;
21432;SDS011;18592;49.708;10.900;2023-05-07T12:11:45;2.03;;;1.88;;
21432;SDS011;18592;49.708;10.900;2023-05-07T12:13:47;2.78;;;2.10;;
21432;SDS011;18592;49.708;10.900;2023-05-07T12:15:53;2.15;;;2.05;;
21432;SDS011;18592;49.708;10.900;2023-05-07T12:17:56;2.58;;;2.38;;
21432;SDS011;18592;49.708;10.900;2023-05-07T12:19:58;4.55;;;2.50;;
21432;SDS011;18592;49.708;10.900;2023-05-07T12:22:00;2.25;;;2.05;;
21432;SDS011;18592;49.708;10.900;2023-05-07T12:24:04;2.25;;;2.05;;
21432;SDS011;18592;49.708;10.900;2023-05-07T12:26:06;2.45;;;2.25;;
21432;SDS011;18592;49.708;10.900;2023-05-07T12:28:12;2.63;;;2.10;;
21432;SDS011;18592;49.708;10.900;2023-05-07T12:30:17;2.15;;;1.95;;
21432;SDS011;18592;49.708;10.900;2023-05-07T12:32:19;2.33;;;2.00;;